createdAt,value
2018-01-29T00:01:36.327Z,2.63
2018-01-29T00:04:04.629Z,2.40
2018-01-29T00:06:32.917Z,2.43
2018-01-29T00:09:01.281Z,2.57
2018-01-29T00:11:29.561Z,2.40
2018-01-29T00:13:57.829Z,2.30
2018-01-29T00:16:26.073Z,3.00
2018-01-29T00:18:54.407Z,2.60
2018-01-29T00:21:22.686Z,3.20
2018-01-29T00:23:50.945Z,2.60
2018-01-29T00:26:19.250Z,2.43
2018-01-29T00:28:47.516Z,2.43
2018-01-29T00:31:15.805Z,1.87
2018-01-29T00:33:44.075Z,2.50
2018-01-29T00:36:12.323Z,1.93
2018-01-29T00:38:41.346Z,2.03
2018-01-29T00:41:09.600Z,2.40
2018-01-29T00:43:38.622Z,2.40
2018-01-29T00:46:06.915Z,3.07
2018-01-29T00:48:35.193Z,2.90
2018-01-29T00:51:03.429Z,1.77
2018-01-29T00:53:32.445Z,2.00
2018-01-29T00:56:00.699Z,2.03
2018-01-29T00:58:29.727Z,1.73
2018-01-29T01:00:58.025Z,1.90
2018-01-29T01:03:26.262Z,2.30
2018-01-29T01:05:55.324Z,2.13
2018-01-29T01:08:23.577Z,2.10
2018-01-29T01:10:51.817Z,1.90
2018-01-29T01:13:20.847Z,2.27
2018-01-29T01:15:49.135Z,1.90
2018-01-29T01:18:17.448Z,2.30
2018-01-29T01:20:45.663Z,1.70
2018-01-29T01:23:13.926Z,1.67
2018-01-29T01:25:42.933Z,1.80
2018-01-29T01:28:11.965Z,1.60
2018-01-29T01:30:40.206Z,2.50
2018-01-29T01:33:09.219Z,2.73
2018-01-29T01:35:37.470Z,1.93
2018-01-29T01:38:06.494Z,2.20
2018-01-29T01:40:34.790Z,2.07
2018-01-29T01:43:03.108Z,2.10
2018-01-29T01:45:31.339Z,2.10
2018-01-29T01:47:59.632Z,1.73
2018-01-29T01:50:27.919Z,2.10
2018-01-29T01:52:57.040Z,1.87
2018-01-29T01:55:25.398Z,2.10
2018-01-29T01:57:53.641Z,1.77
2018-01-29T02:00:21.923Z,2.07
2018-01-29T02:02:50.234Z,2.30
2018-01-29T02:05:18.549Z,1.80
2018-01-29T02:07:46.827Z,1.70
2018-01-29T02:10:15.205Z,1.63
2018-01-29T02:12:43.480Z,2.20
2018-01-29T02:15:11.719Z,1.73
2018-01-29T02:17:39.958Z,1.53
2018-01-29T02:20:09.004Z,1.73
2018-01-29T02:22:37.238Z,1.90
2018-01-29T02:25:06.289Z,2.07
2018-01-29T02:27:34.566Z,1.80
2018-01-29T02:30:02.824Z,1.37
2018-01-29T02:32:31.258Z,2.10
2018-01-29T02:34:59.488Z,1.90
2018-01-29T02:37:27.731Z,1.47
2018-01-29T02:39:56.762Z,1.50
2018-01-29T02:42:25.007Z,1.57
2018-01-29T02:44:54.719Z,2.00
2018-01-29T02:47:23.758Z,1.47
2018-01-29T02:49:52.019Z,1.80
2018-01-29T02:52:20.253Z,1.10
2018-01-29T02:54:48.510Z,1.50
2018-01-29T02:57:16.758Z,1.30
2018-01-29T02:59:45.017Z,1.40
2018-01-29T03:02:14.042Z,1.43
2018-01-29T03:04:42.307Z,1.10
2018-01-29T03:07:10.648Z,1.67
2018-01-29T03:09:38.879Z,1.20
2018-01-29T03:12:07.269Z,1.27
2018-01-29T03:14:35.537Z,1.40
2018-01-29T03:17:03.826Z,1.50
2018-01-29T03:19:32.147Z,1.80
2018-01-29T03:22:00.385Z,1.40
2018-01-29T03:24:28.641Z,1.07
2018-01-29T03:26:56.893Z,1.20
2018-01-29T03:29:25.159Z,0.90
2018-01-29T03:31:53.409Z,1.30
2018-01-29T03:34:22.503Z,1.17
2018-01-29T03:36:50.747Z,1.00
2018-01-29T03:39:19.050Z,1.00
2018-01-29T03:41:47.325Z,0.90
2018-01-29T03:44:15.611Z,1.40
2018-01-29T03:46:43.896Z,1.17
2018-01-29T03:49:12.141Z,1.03
2018-01-29T03:51:40.438Z,1.00
2018-01-29T03:54:08.694Z,1.43
2018-01-29T03:56:38.649Z,0.80
2018-01-29T03:59:06.943Z,2.07
2018-01-29T04:01:35.240Z,1.20
2018-01-29T04:04:03.473Z,1.10
2018-01-29T04:06:31.714Z,1.03
2018-01-29T04:09:00.761Z,0.97
2018-01-29T04:11:29.007Z,1.23
2018-01-29T04:13:58.014Z,0.90
2018-01-29T04:16:26.279Z,1.10
2018-01-29T04:18:55.276Z,1.47
2018-01-29T04:21:24.331Z,1.03
2018-01-29T04:23:52.565Z,1.10
2018-01-29T04:26:20.829Z,1.50
2018-01-29T04:28:49.843Z,1.20
2018-01-29T04:31:18.101Z,1.07
2018-01-29T04:33:47.106Z,1.27
2018-01-29T04:36:16.159Z,1.20
2018-01-29T04:38:44.400Z,1.20
2018-01-29T04:41:12.695Z,0.83
2018-01-29T04:43:40.936Z,1.30
2018-01-29T04:49:05.276Z,1.10
2018-01-29T04:51:33.566Z,1.50
2018-01-29T04:54:01.805Z,1.00
2018-01-29T04:56:30.943Z,1.40
2018-01-29T04:58:59.218Z,1.73
2018-01-29T05:01:27.460Z,1.50
2018-01-29T05:03:56.519Z,1.50
2018-01-29T05:06:24.917Z,1.40
2018-01-29T05:08:53.163Z,1.13
2018-01-29T05:11:21.458Z,1.27
2018-01-29T05:13:49.710Z,1.30
2018-01-29T05:16:17.976Z,1.23
2018-01-29T05:18:46.982Z,1.40
2018-01-29T05:21:15.306Z,1.43
2018-01-29T05:23:43.574Z,1.50
2018-01-29T05:26:11.818Z,1.37
2018-01-29T05:28:40.066Z,1.13
2018-01-29T05:31:09.094Z,1.50
2018-01-29T05:33:37.378Z,1.37
2018-01-29T05:36:18.538Z,1.43
2018-01-29T05:38:46.806Z,1.20
2018-01-29T05:41:15.038Z,1.73
2018-01-29T05:43:43.296Z,1.30
2018-01-29T05:46:11.557Z,1.40
2018-01-29T05:48:40.584Z,1.60
2018-01-29T05:51:08.840Z,1.57
2018-01-29T05:53:37.097Z,1.53
2018-01-29T05:56:05.344Z,1.60
2018-01-29T05:58:33.615Z,1.73
2018-01-29T06:01:01.878Z,1.70
2018-01-29T06:03:30.177Z,1.57
2018-01-29T06:05:58.453Z,1.60
2018-01-29T06:08:26.716Z,1.60
2018-01-29T06:10:54.957Z,1.40
2018-01-29T06:13:23.983Z,1.40
2018-01-29T06:15:52.276Z,1.63
2018-01-29T06:18:20.529Z,1.70
2018-01-29T06:20:48.788Z,1.87
2018-01-29T06:23:17.827Z,1.73
2018-01-29T06:25:46.062Z,1.20
2018-01-29T06:28:15.084Z,1.40
2018-01-29T06:30:43.320Z,1.50
2018-01-29T06:33:11.577Z,1.53
2018-01-29T06:35:39.814Z,1.37
2018-01-29T06:38:08.074Z,1.60
2018-01-29T06:40:37.093Z,1.63
2018-01-29T06:43:05.340Z,1.70
2018-01-29T06:45:33.593Z,2.20
2018-01-29T06:48:01.834Z,2.00
2018-01-29T06:50:30.110Z,1.97
2018-01-29T06:52:59.137Z,2.17
2018-01-29T06:55:28.061Z,2.30
2018-01-29T06:57:56.311Z,1.93
2018-01-29T07:00:24.565Z,2.10
2018-01-29T07:02:52.808Z,2.37
2018-01-29T07:05:21.223Z,2.20
2018-01-29T07:07:49.473Z,2.13
2018-01-29T07:10:18.494Z,2.20
2018-01-29T07:12:47.514Z,2.20
2018-01-29T07:15:15.781Z,2.00
2018-01-29T07:17:44.015Z,2.00
2018-01-29T07:20:12.473Z,2.27
2018-01-29T07:22:40.773Z,2.07
2018-01-29T07:25:09.002Z,2.30
2018-01-29T07:27:37.340Z,2.10
2018-01-29T07:30:05.552Z,1.60
2018-01-29T07:32:33.896Z,1.97
2018-01-29T07:35:02.120Z,1.80
2018-01-29T07:37:30.365Z,2.00
2018-01-29T07:39:59.384Z,2.47
2018-01-29T07:42:27.721Z,2.10
2018-01-29T07:44:57.587Z,1.90
2018-01-29T07:47:25.887Z,2.47
2018-01-29T07:49:54.168Z,2.30
2018-01-29T07:52:22.407Z,2.20
2018-01-29T07:54:51.431Z,2.20
2018-01-29T07:57:19.814Z,1.63
2018-01-29T07:59:49.526Z,2.10
2018-01-29T08:02:17.790Z,1.90
2018-01-29T08:04:46.064Z,1.80
2018-01-29T08:07:14.378Z,2.30
2018-01-29T08:09:42.651Z,2.00
2018-01-29T08:12:10.907Z,2.00
2018-01-29T08:14:39.964Z,2.17
2018-01-29T08:17:08.210Z,1.90
2018-01-29T08:19:36.470Z,1.93
2018-01-29T08:22:04.715Z,1.50
2018-01-29T08:24:33.769Z,2.13
2018-01-29T08:27:02.036Z,2.00
2018-01-29T08:29:30.297Z,2.10
2018-01-29T08:31:58.622Z,1.80
2018-01-29T08:34:26.882Z,2.03
2018-01-29T08:36:55.147Z,1.90
2018-01-29T08:39:23.395Z,1.90
2018-01-29T08:41:52.438Z,1.60
2018-01-29T08:44:20.688Z,1.90
2018-01-29T08:46:49.001Z,1.80
2018-01-29T08:49:17.379Z,2.10
2018-01-29T08:51:45.642Z,2.27
2018-01-29T08:54:13.898Z,1.77
2018-01-29T08:56:42.249Z,1.70
2018-01-29T08:59:10.598Z,1.67
2018-01-29T09:01:38.904Z,1.60
2018-01-29T09:04:07.134Z,1.60
2018-01-29T09:06:35.407Z,1.90
2018-01-29T09:09:03.779Z,1.60
2018-01-29T09:11:32.093Z,1.50
2018-01-29T09:14:00.346Z,1.70
2018-01-29T09:16:29.477Z,1.70
2018-01-29T09:18:57.733Z,1.83
2018-01-29T09:21:26.126Z,1.90
2018-01-29T09:23:54.438Z,2.10
2018-01-29T09:26:22.804Z,1.90
2018-01-29T09:28:51.063Z,2.00
2018-01-29T09:31:19.332Z,2.20
2018-01-29T09:33:47.666Z,1.73
2018-01-29T09:36:16.016Z,1.97
2018-01-29T09:38:44.939Z,2.10
2018-01-29T09:41:14.486Z,2.80
2018-01-29T09:43:43.004Z,3.07
2018-01-29T09:46:11.329Z,2.70
2018-01-29T09:48:39.588Z,2.47
2018-01-29T09:51:08.178Z,2.57
2018-01-29T09:53:36.800Z,2.20
2018-01-29T09:56:05.222Z,2.73
2018-01-29T09:58:33.498Z,2.50
2018-01-29T10:01:01.767Z,2.50
2018-01-29T10:03:30.017Z,2.57
2018-01-29T10:05:59.053Z,2.33
2018-01-29T10:08:27.313Z,2.87
2018-01-29T10:10:55.597Z,2.53
2018-01-29T10:13:23.889Z,2.33
2018-01-29T10:15:52.166Z,2.80
2018-01-29T10:18:20.410Z,3.40
2018-01-29T10:20:48.678Z,2.77
2018-01-29T10:23:17.685Z,3.20
2018-01-29T10:25:45.950Z,3.10
2018-01-29T10:28:15.134Z,3.70
2018-01-29T10:30:43.382Z,2.97
2018-01-29T10:33:11.711Z,3.17
2018-01-29T10:35:40.025Z,2.80
2018-01-29T10:38:08.314Z,3.30
2018-01-29T10:40:36.574Z,3.53
2018-01-29T10:43:04.817Z,3.97
2018-01-29T10:45:33.851Z,3.90
2018-01-29T10:48:02.181Z,4.33
2018-01-29T10:50:30.441Z,3.97
2018-01-29T10:52:59.602Z,3.80
2018-01-29T10:55:27.865Z,3.63
2018-01-29T10:57:56.906Z,3.40
2018-01-29T11:00:26.006Z,3.17
2018-01-29T11:02:54.249Z,3.90
2018-01-29T11:05:22.530Z,4.00
2018-01-29T11:07:50.773Z,4.17
2018-01-29T11:10:19.029Z,4.20
2018-01-29T11:12:47.293Z,2.87
2018-01-29T11:15:15.569Z,3.20
2018-01-29T11:17:43.819Z,2.50
2018-01-29T11:20:12.846Z,3.10
2018-01-29T11:22:41.098Z,3.20
2018-01-29T11:25:09.351Z,2.83
2018-01-29T11:27:37.715Z,2.77
2018-01-29T11:30:05.980Z,2.07
2018-01-29T11:32:34.257Z,2.60
2018-01-29T11:35:02.544Z,1.87
2018-01-29T11:37:30.816Z,2.50
2018-01-29T11:39:59.104Z,2.63
2018-01-29T11:42:27.620Z,2.13
2018-01-29T11:44:55.863Z,2.17
2018-01-29T11:47:24.141Z,2.13
2018-01-29T11:49:52.386Z,1.87
2018-01-29T11:52:21.412Z,1.90
2018-01-29T11:54:49.658Z,2.00
2018-01-29T11:57:18.906Z,1.57
2018-01-29T11:59:47.152Z,1.80
2018-01-29T12:02:15.459Z,2.30
2018-01-29T12:04:43.702Z,2.10
2018-01-29T12:07:12.737Z,1.47
2018-01-29T12:09:41.014Z,1.50
2018-01-29T12:12:09.291Z,1.83
2018-01-29T12:14:37.574Z,1.67
2018-01-29T12:17:05.869Z,1.50
2018-01-29T12:19:34.079Z,2.53
2018-01-29T12:22:02.414Z,2.50
2018-01-29T12:24:30.661Z,1.70
2018-01-29T12:26:59.547Z,1.90
2018-01-29T12:29:28.554Z,2.23
2018-01-29T12:31:56.899Z,1.80
2018-01-29T12:34:25.134Z,2.10
2018-01-29T12:36:53.418Z,1.93
2018-01-29T12:39:21.942Z,1.77
2018-01-29T12:41:51.006Z,1.60
2018-01-29T12:44:19.251Z,2.20
2018-01-29T12:46:47.521Z,1.50
2018-01-29T12:49:16.540Z,1.77
2018-01-29T12:51:44.810Z,1.63
2018-01-29T12:54:13.817Z,1.63
2018-01-29T12:56:42.849Z,2.03
2018-01-29T12:59:11.096Z,2.00
2018-01-29T13:01:39.362Z,1.70
2018-01-29T13:04:08.371Z,1.70
2018-01-29T13:06:36.649Z,1.57
2018-01-29T13:09:04.989Z,1.30
2018-01-29T13:11:33.298Z,1.67
2018-01-29T13:14:01.494Z,1.50
2018-01-29T13:16:29.831Z,1.40
2018-01-29T13:18:58.073Z,1.40
2018-01-29T13:21:26.342Z,1.67
2018-01-29T13:23:54.674Z,1.10
2018-01-29T13:26:22.959Z,1.20
2018-01-29T13:28:51.236Z,1.30
2018-01-29T13:31:19.472Z,1.23
2018-01-29T13:33:47.724Z,1.30
2018-01-29T13:36:16.869Z,1.37
2018-01-29T13:38:45.118Z,1.20
2018-01-29T13:41:13.414Z,1.30
2018-01-29T13:43:41.701Z,1.73
2018-01-29T13:46:09.955Z,1.10
2018-01-29T13:48:38.214Z,1.13
2018-01-29T13:51:07.246Z,1.40
2018-01-29T13:53:35.510Z,1.30
2018-01-29T13:56:03.805Z,1.03
2018-01-29T13:58:32.107Z,1.20
2018-01-29T14:01:00.382Z,1.10
2018-01-29T14:03:28.626Z,1.50
2018-01-29T14:05:56.904Z,1.60
2018-01-29T14:08:25.154Z,1.73
2018-01-29T14:10:53.420Z,1.60
2018-01-29T14:13:21.662Z,1.40
2018-01-29T14:15:49.990Z,1.83
2018-01-29T14:18:18.264Z,1.97
2018-01-29T14:20:46.512Z,1.90
2018-01-29T14:23:14.771Z,1.60
2018-01-29T14:25:43.083Z,2.00
2018-01-29T14:28:11.455Z,1.50
2018-01-29T14:30:39.706Z,2.17
2018-01-29T14:33:07.975Z,2.17
2018-01-29T14:35:37.021Z,2.40
2018-01-29T14:38:05.284Z,1.80
2018-01-29T14:40:34.523Z,2.40
2018-01-29T14:43:02.796Z,2.23
2018-01-29T14:45:31.040Z,2.10
2018-01-29T14:47:59.645Z,2.03
2018-01-29T14:50:28.363Z,2.57
2018-01-29T14:52:56.693Z,2.67
2018-01-29T14:55:24.948Z,2.27
2018-01-29T14:57:53.984Z,2.53
2018-01-29T15:00:22.242Z,2.20
2018-01-29T15:02:50.514Z,2.50
2018-01-29T15:05:19.518Z,2.33
2018-01-29T15:07:47.792Z,2.63
2018-01-29T15:10:16.089Z,4.17
2018-01-29T15:12:44.338Z,2.97
2018-01-29T15:15:13.463Z,3.10
2018-01-29T15:17:41.753Z,3.77
2018-01-29T15:20:10.028Z,2.67
2018-01-29T15:22:38.327Z,3.90
2018-01-29T15:25:06.571Z,3.43
2018-01-29T15:27:34.849Z,2.57
2018-01-29T15:30:03.915Z,3.10
2018-01-29T15:32:32.155Z,3.30
2018-01-29T15:35:00.392Z,3.10
2018-01-29T15:37:29.418Z,3.27
2018-01-29T15:39:57.677Z,3.33
2018-01-29T15:42:26.706Z,3.10
2018-01-29T15:44:54.958Z,2.83
2018-01-29T15:47:24.081Z,3.20
2018-01-29T15:49:52.326Z,3.27
2018-01-29T15:52:21.360Z,3.00
2018-01-29T15:54:49.607Z,2.80
2018-01-29T15:57:18.731Z,3.20
2018-01-29T15:59:46.989Z,2.93
2018-01-29T16:02:15.335Z,2.57
2018-01-29T16:04:43.636Z,2.73
2018-01-29T16:07:12.657Z,2.53
2018-01-29T16:09:40.942Z,2.30
2018-01-29T16:12:09.988Z,2.80
2018-01-29T16:14:38.234Z,2.60
2018-01-29T16:17:06.552Z,2.60
2018-01-29T16:19:34.794Z,2.67
2018-01-29T16:22:03.042Z,2.47
2018-01-29T16:24:31.315Z,2.40
2018-01-29T16:27:00.328Z,2.37
2018-01-29T16:29:28.649Z,2.43
2018-01-29T16:31:56.981Z,2.80
2018-01-29T16:34:25.400Z,1.90
2018-01-29T16:36:53.689Z,2.33
2018-01-29T16:39:21.953Z,1.80
2018-01-29T16:41:50.233Z,2.33
2018-01-29T16:44:18.521Z,2.50
2018-01-29T16:46:46.769Z,1.83
2018-01-29T16:49:15.184Z,2.13
2018-01-29T16:51:43.426Z,2.00
2018-01-29T16:54:11.730Z,2.70
2018-01-29T16:56:40.017Z,1.93
2018-01-29T16:59:08.310Z,2.00
2018-01-29T17:01:36.554Z,2.23
2018-01-29T17:04:04.821Z,2.13
2018-01-29T17:06:33.075Z,2.00
2018-01-29T17:09:01.434Z,1.90
2018-01-29T17:11:29.701Z,1.60
2018-01-29T17:13:59.744Z,2.10
2018-01-29T17:16:28.828Z,2.03
2018-01-29T17:18:57.095Z,1.73
2018-01-29T17:21:25.362Z,2.07
2018-01-29T17:23:53.614Z,1.93
2018-01-29T17:26:22.637Z,1.63
2018-01-29T17:28:50.884Z,1.80
2018-01-29T17:31:19.924Z,1.87
2018-01-29T17:33:48.174Z,2.50
2018-01-29T17:36:16.438Z,1.83
2018-01-29T17:38:45.443Z,2.30
2018-01-29T17:41:14.472Z,2.00
2018-01-29T17:43:42.723Z,2.20
2018-01-29T17:46:11.862Z,2.20
2018-01-29T17:48:40.103Z,1.80
2018-01-29T17:51:08.362Z,1.77
2018-01-29T17:53:37.370Z,2.30
2018-01-29T17:56:06.517Z,1.73
2018-01-29T17:58:34.781Z,2.40
2018-01-29T18:01:03.047Z,2.77
2018-01-29T18:03:31.309Z,2.30
2018-01-29T18:06:00.334Z,2.27
2018-01-29T18:08:28.609Z,2.10
2018-01-29T18:10:56.939Z,2.10
2018-01-29T18:13:25.181Z,2.40
2018-01-29T18:15:53.434Z,2.00
2018-01-29T18:18:21.873Z,2.30
2018-01-29T18:20:50.135Z,1.97
2018-01-29T18:23:18.429Z,2.53
2018-01-29T18:25:46.731Z,2.17
2018-01-29T18:28:16.526Z,2.40
2018-01-29T18:30:44.876Z,2.43
2018-01-29T18:33:13.290Z,2.00
2018-01-29T18:35:41.550Z,2.23
2018-01-29T18:38:09.814Z,2.63
2018-01-29T18:40:38.073Z,2.90
2018-01-29T18:43:06.334Z,2.63
2018-01-29T18:45:35.357Z,2.47
2018-01-29T18:48:03.633Z,2.20
2018-01-29T18:50:31.907Z,2.20
2018-01-29T18:53:00.183Z,2.50
2018-01-29T18:55:28.514Z,2.40
2018-01-29T18:57:56.797Z,2.63
2018-01-29T19:00:25.064Z,2.00
2018-01-29T19:02:53.317Z,2.90
2018-01-29T19:05:21.572Z,2.67
2018-01-29T19:07:50.603Z,2.37
2018-01-29T19:10:18.855Z,2.30
2018-01-29T19:12:47.120Z,2.30
2018-01-29T19:15:16.137Z,2.50
2018-01-29T19:17:44.399Z,2.40
2018-01-29T19:20:13.451Z,2.03
2018-01-29T19:22:41.758Z,2.17
2018-01-29T19:25:10.003Z,2.13
2018-01-29T19:27:39.030Z,1.90
2018-01-29T19:30:07.385Z,2.53
2018-01-29T19:32:35.691Z,2.27
2018-01-29T19:35:03.958Z,2.37
2018-01-29T19:37:32.242Z,2.50
2018-01-29T19:40:00.511Z,2.03
2018-01-29T19:42:28.785Z,1.90
2018-01-29T19:44:57.087Z,2.43
2018-01-29T19:47:25.772Z,2.20
2018-01-29T19:49:54.028Z,1.93
2018-01-29T19:52:22.287Z,3.10
2018-01-29T19:54:50.586Z,2.30
2018-01-29T19:57:18.852Z,1.70
2018-01-29T19:59:47.128Z,1.90
2018-01-29T20:02:15.423Z,2.60
2018-01-29T20:04:43.688Z,2.30
2018-01-29T20:07:11.980Z,2.60
2018-01-29T20:09:40.234Z,2.27
2018-01-29T20:12:08.642Z,2.00
2018-01-29T20:14:36.901Z,2.30
2018-01-29T20:17:05.149Z,2.10
2018-01-29T20:19:33.417Z,2.03
2018-01-29T20:22:01.661Z,1.93
2018-01-29T20:24:29.958Z,2.07
2018-01-29T20:26:58.211Z,2.70
2018-01-29T20:29:26.505Z,2.20
2018-01-29T20:31:54.777Z,2.27
2018-01-29T20:34:23.034Z,2.27
2018-01-29T20:36:51.296Z,1.87
2018-01-29T20:39:20.382Z,2.37
2018-01-29T20:41:48.602Z,1.97
2018-01-29T20:44:16.870Z,1.57
2018-01-29T20:46:45.217Z,2.13
2018-01-29T20:49:13.458Z,2.30
2018-01-29T20:51:41.710Z,1.80
2018-01-29T20:54:10.052Z,1.90
2018-01-29T20:56:38.351Z,1.93
2018-01-29T20:59:06.598Z,1.80
2018-01-29T21:01:34.858Z,1.80
2018-01-29T21:04:03.153Z,1.90
2018-01-29T21:06:31.763Z,2.07
2018-01-29T21:09:00.252Z,1.87
2018-01-29T21:11:28.524Z,1.90
2018-01-29T21:13:56.875Z,2.00
2018-01-29T21:16:25.150Z,1.90
2018-01-29T21:18:53.393Z,1.70
2018-01-29T21:21:21.711Z,1.73
2018-01-29T21:23:49.960Z,1.90
2018-01-29T21:26:18.231Z,1.90
2018-01-29T21:28:47.278Z,1.97
2018-01-29T21:31:15.663Z,2.40
2018-01-29T21:33:43.932Z,1.73
2018-01-29T21:36:12.200Z,2.07
2018-01-29T21:38:40.494Z,1.83
2018-01-29T21:41:08.802Z,1.40
2018-01-29T21:43:38.558Z,1.50
2018-01-29T21:46:06.894Z,2.30
2018-01-29T21:48:35.146Z,1.73
2018-01-29T21:51:03.442Z,1.83
2018-01-29T21:53:31.733Z,2.10
2018-01-29T21:55:59.974Z,1.83
2018-01-29T21:58:29.051Z,1.80
2018-01-29T22:00:57.309Z,3.20
2018-01-29T22:03:26.332Z,2.53
2018-01-29T22:05:54.644Z,2.20
2018-01-29T22:08:22.901Z,2.30
2018-01-29T22:10:51.417Z,1.90
2018-01-29T22:13:19.686Z,2.00
2018-01-29T22:15:48.016Z,2.40
2018-01-29T22:18:17.039Z,1.93
2018-01-29T22:20:45.350Z,2.43
2018-01-29T22:23:13.602Z,2.20
2018-01-29T22:25:41.919Z,2.10
2018-01-29T22:28:10.165Z,2.43
2018-01-29T22:30:38.415Z,2.10
2018-01-29T22:33:06.762Z,1.50
2018-01-29T22:35:34.996Z,1.57
2018-01-29T22:38:03.288Z,0.60
2018-01-29T22:40:31.545Z,0.50
2018-01-29T22:42:59.875Z,0.50
2018-01-29T22:45:28.126Z,0.50
2018-01-29T22:47:56.400Z,0.50
2018-01-29T22:50:24.696Z,0.40
2018-01-29T22:52:53.053Z,0.50
2018-01-29T22:55:21.287Z,0.60
2018-01-29T22:57:49.551Z,0.40
2018-01-29T23:00:17.906Z,0.50
2018-01-29T23:02:46.188Z,0.80
2018-01-29T23:05:14.451Z,0.80
2018-01-29T23:07:42.706Z,0.90
2018-01-29T23:10:10.968Z,0.50
2018-01-29T23:12:39.218Z,0.60
2018-01-29T23:15:07.470Z,0.80
2018-01-29T23:17:35.870Z,0.70
2018-01-29T23:20:04.115Z,0.90
2018-01-29T23:22:32.429Z,1.00
2018-01-29T23:25:00.670Z,1.20
2018-01-29T23:27:28.940Z,1.00
2018-01-29T23:29:57.980Z,1.00
2018-01-29T23:32:26.245Z,0.87
2018-01-29T23:34:54.501Z,1.07
2018-01-29T23:37:22.778Z,1.20
2018-01-29T23:39:51.033Z,1.03
2018-01-29T23:42:19.292Z,1.00
2018-01-29T23:44:47.650Z,0.90
2018-01-29T23:47:15.895Z,0.97
2018-01-29T23:49:44.918Z,1.00
2018-01-29T23:52:13.201Z,1.50
2018-01-29T23:54:41.451Z,1.77
2018-01-29T23:57:10.453Z,1.80
2018-01-29T23:59:38.720Z,2.07
